createdAt,value
2023-06-10T00:00:43.357Z,16.5
2023-06-10T00:01:44.401Z,16.5
2023-06-10T00:02:45.575Z,16.5
2023-06-10T00:03:46.635Z,16.5
2023-06-10T00:04:47.378Z,16.5
2023-06-10T00:05:48.349Z,16.5
2023-06-10T00:06:49.506Z,16.5
2023-06-10T00:07:50.369Z,16.5
2023-06-10T00:08:51.331Z,16.5
2023-06-10T00:09:52.359Z,16.5
2023-06-10T00:10:53.357Z,16.5
2023-06-10T00:11:54.326Z,16.5
2023-06-10T00:12:55.329Z,16.4
2023-06-10T00:13:56.416Z,16.4
2023-06-10T00:14:57.385Z,16.4
2023-06-10T00:15:58.355Z,16.4
2023-06-10T00:16:59.333Z,16.4
2023-06-10T00:18:00.428Z,16.5
2023-06-10T00:19:01.336Z,16.5
2023-06-10T00:20:02.437Z,16.5
2023-06-10T00:21:03.365Z,16.5
2023-06-10T00:22:04.352Z,16.6
2023-06-10T00:23:05.364Z,16.6
2023-06-10T00:24:06.408Z,16.6
2023-06-10T00:25:07.800Z,16.6
2023-06-10T00:26:08.340Z,16.6
2023-06-10T00:27:09.417Z,16.6
2023-06-10T00:28:10.334Z,16.6
2023-06-10T00:29:11.364Z,16.6
2023-06-10T00:30:12.351Z,16.6
2023-06-10T00:31:13.364Z,16.6
2023-06-10T00:32:14.378Z,16.6
2023-06-10T00:33:15.442Z,16.5
2023-06-10T00:34:16.360Z,16.5
2023-06-10T00:35:17.366Z,16.6
2023-06-10T00:36:18.354Z,16.6
2023-06-10T00:37:19.369Z,16.7
2023-06-10T00:38:20.340Z,16.7
2023-06-10T00:39:21.365Z,16.7
2023-06-10T00:40:22.346Z,16.7
2023-06-10T00:41:23.527Z,16.8
2023-06-10T00:42:24.402Z,16.8
2023-06-10T00:43:25.344Z,16.8
2023-06-10T00:44:26.432Z,16.8
2023-06-10T00:45:27.379Z,16.9
2023-06-10T00:46:28.418Z,16.8
2023-06-10T00:47:29.418Z,16.8
2023-06-10T00:48:30.394Z,16.8
2023-06-10T00:49:31.415Z,16.8
2023-06-10T00:50:32.398Z,16.8
2023-06-10T00:51:33.359Z,16.8
2023-06-10T00:52:34.497Z,16.9
2023-06-10T00:53:35.357Z,16.9
2023-06-10T00:54:36.358Z,16.9
2023-06-10T00:55:37.364Z,16.9
2023-06-10T00:56:38.358Z,16.9
2023-06-10T00:57:39.384Z,16.9
2023-06-10T00:58:40.387Z,16.9
2023-06-10T00:59:41.379Z,16.9
2023-06-10T01:00:42.439Z,16.9
2023-06-10T01:01:43.434Z,17
2023-06-10T01:02:44.581Z,17
2023-06-10T01:03:45.386Z,17
2023-06-10T01:04:46.363Z,17
2023-06-10T01:05:47.359Z,17
2023-06-10T01:06:48.397Z,17
2023-06-10T01:07:49.408Z,17
2023-06-10T01:08:50.376Z,17
2023-06-10T01:09:51.467Z,17
2023-06-10T01:10:52.380Z,17
2023-06-10T01:11:53.418Z,17
2023-06-10T01:12:54.424Z,17
2023-06-10T01:13:55.385Z,17
2023-06-10T01:14:56.365Z,17
2023-06-10T01:15:57.386Z,17
2023-06-10T01:16:58.408Z,17
2023-06-10T01:17:59.603Z,17
2023-06-10T01:19:00.402Z,17
2023-06-10T01:20:01.423Z,17
2023-06-10T01:21:02.383Z,17
2023-06-10T01:22:03.378Z,17
2023-06-10T01:23:04.452Z,17
2023-06-10T01:24:05.439Z,17
2023-06-10T01:25:06.645Z,17
2023-06-10T01:26:07.417Z,17
2023-06-10T01:27:08.759Z,17
2023-06-10T01:28:09.382Z,17
2023-06-10T01:29:10.388Z,17
2023-06-10T01:30:11.393Z,17.1
2023-06-10T01:31:12.450Z,17
2023-06-10T01:32:13.426Z,17.1
2023-06-10T01:33:14.462Z,17
2023-06-10T01:34:15.454Z,17
2023-06-10T01:35:16.391Z,17
2023-06-10T01:36:17.382Z,16.9
2023-06-10T01:37:18.395Z,17
2023-06-10T01:38:19.380Z,17
2023-06-10T01:39:20.404Z,17
2023-06-10T01:40:21.387Z,17
2023-06-10T01:41:22.424Z,17
2023-06-10T01:42:23.452Z,17
2023-06-10T01:43:24.409Z,17
2023-06-10T01:44:25.406Z,17
2023-06-10T01:45:26.389Z,16.9
2023-06-10T01:46:27.444Z,16.8
2023-06-10T01:47:28.436Z,16.7
2023-06-10T01:48:29.387Z,16.7
2023-06-10T01:49:30.452Z,16.8
2023-06-10T01:50:31.413Z,16.8
2023-06-10T01:51:32.409Z,16.8
2023-06-10T01:52:33.434Z,16.9
2023-06-10T01:53:34.384Z,16.9
2023-06-10T01:54:35.403Z,16.9
2023-06-10T01:55:36.401Z,16.9
2023-06-10T01:56:37.383Z,17
2023-06-10T01:57:38.778Z,17
2023-06-10T01:58:39.410Z,17
2023-06-10T01:59:40.406Z,16.9
2023-06-10T02:00:41.443Z,17
2023-06-10T02:01:42.401Z,17
2023-06-10T02:02:43.609Z,17
2023-06-10T02:03:44.484Z,17
2023-06-10T02:04:45.414Z,17
2023-06-10T02:05:46.402Z,17
2023-06-10T02:06:47.445Z,16.9
2023-06-10T02:07:48.440Z,16.9
2023-06-10T02:08:59.291Z,16.9
2023-06-10T02:10:00.445Z,16.9
2023-06-10T02:11:01.456Z,17
2023-06-10T02:12:02.413Z,17
2023-06-10T02:13:03.493Z,17
2023-06-10T02:14:04.427Z,17
2023-06-10T02:15:05.414Z,17.1
2023-06-10T02:16:06.485Z,17.1
2023-06-10T02:17:07.470Z,17
2023-06-10T02:18:08.477Z,17
2023-06-10T02:19:09.413Z,17
2023-06-10T02:20:10.419Z,16.9
2023-06-10T02:21:11.417Z,16.8
2023-06-10T02:22:12.406Z,16.6
2023-06-10T02:23:13.424Z,16.6
2023-06-10T02:24:14.427Z,16.6
2023-06-10T02:25:15.444Z,16.7
2023-06-10T02:26:16.421Z,16.8
2023-06-10T02:27:17.428Z,16.8
2023-06-10T02:28:18.436Z,16.8
2023-06-10T02:29:19.425Z,16.9
2023-06-10T02:30:20.435Z,16.9
2023-06-10T02:31:22.076Z,16.9
2023-06-10T02:32:23.439Z,17
2023-06-10T02:33:24.411Z,17
2023-06-10T02:34:25.421Z,17
2023-06-10T02:35:26.447Z,17.1
2023-06-10T02:36:27.414Z,17.1
2023-06-10T02:37:28.447Z,17.2
2023-06-10T02:38:29.426Z,17.2
2023-06-10T02:39:30.448Z,17.3
2023-06-10T02:40:31.482Z,17.2
2023-06-10T02:41:32.437Z,17.2
2023-06-10T02:42:33.536Z,17.3
2023-06-10T02:43:34.419Z,17.3
2023-06-10T02:44:35.426Z,17.3
2023-06-10T02:45:36.442Z,17.3
2023-06-10T02:46:37.491Z,17.3
2023-06-10T02:47:38.425Z,17.3
2023-06-10T02:48:39.436Z,17.3
2023-06-10T02:49:40.435Z,17.3
2023-06-10T02:50:41.585Z,17.3
2023-06-10T02:51:42.441Z,17.3
2023-06-10T02:52:43.491Z,17.2
2023-06-10T02:53:44.427Z,17.2
2023-06-10T02:54:45.519Z,17.2
2023-06-10T02:55:46.426Z,17.2
2023-06-10T02:56:47.455Z,17.3
2023-06-10T02:57:48.443Z,17.3
2023-06-10T02:58:49.450Z,17.2
2023-06-10T02:59:50.475Z,17.3
2023-06-10T03:00:51.495Z,17.2
2023-06-10T03:01:52.617Z,17.2
2023-06-10T03:02:53.516Z,17.2
2023-06-10T03:03:54.477Z,17.2
2023-06-10T03:04:55.442Z,17.2
2023-06-10T03:05:56.465Z,17.2
2023-06-10T03:06:57.545Z,17.2
2023-06-10T03:07:58.461Z,17.2
2023-06-10T03:08:59.481Z,17.2
2023-06-10T03:10:00.437Z,17.1
2023-06-10T03:11:01.454Z,17
2023-06-10T03:12:02.452Z,17.1
2023-06-10T03:13:03.527Z,17.1
2023-06-10T03:14:04.474Z,17.1
2023-06-10T03:15:05.442Z,17.1
2023-06-10T03:16:06.468Z,17.1
2023-06-10T03:17:07.443Z,17.1
2023-06-10T03:18:08.486Z,17.2
2023-06-10T03:19:09.536Z,17.2
2023-06-10T03:20:10.454Z,17.3
2023-06-10T03:21:11.474Z,17.3
2023-06-10T03:22:12.470Z,17.3
2023-06-10T03:23:13.501Z,17.3
2023-06-10T03:24:14.602Z,17.4
2023-06-10T03:25:15.678Z,17.4
2023-06-10T03:26:16.441Z,17.4
2023-06-10T03:27:17.510Z,17.4
2023-06-10T03:28:18.504Z,17.4
2023-06-10T03:29:19.458Z,17.3
2023-06-10T03:30:20.521Z,17
2023-06-10T03:31:21.509Z,16.8
2023-06-10T03:32:22.477Z,16.7
2023-06-10T03:33:23.543Z,16.8
2023-06-10T03:34:24.461Z,16.9
2023-06-10T03:35:25.475Z,16.9
2023-06-10T03:36:26.500Z,17
2023-06-10T03:37:27.481Z,17.1
2023-06-10T03:38:28.491Z,17.1
2023-06-10T03:39:29.483Z,17.1
2023-06-10T03:40:30.479Z,17.2
2023-06-10T03:41:31.470Z,17.2
2023-06-10T03:42:32.453Z,17.2
2023-06-10T03:43:33.461Z,17.3
2023-06-10T03:44:34.505Z,17.2
2023-06-10T03:45:35.606Z,17.1
2023-06-10T03:46:36.463Z,17
2023-06-10T03:47:37.485Z,17.1
2023-06-10T03:48:38.469Z,17.1
2023-06-10T03:49:39.570Z,17.2
2023-06-10T03:50:40.479Z,17.2
2023-06-10T03:51:41.487Z,17.3
2023-06-10T03:52:42.478Z,17.3
2023-06-10T03:53:43.504Z,17.3
2023-06-10T03:54:44.544Z,17.3
2023-06-10T03:55:45.489Z,17.3
2023-06-10T03:56:46.460Z,17.3
2023-06-10T03:57:47.507Z,17.4
2023-06-10T03:58:48.475Z,17.4
2023-06-10T03:59:49.521Z,17.4
2023-06-10T04:00:50.477Z,17.3
2023-06-10T04:01:51.579Z,17.3
2023-06-10T04:02:52.684Z,17.3
2023-06-10T04:03:53.466Z,17.3
2023-06-10T04:04:54.495Z,17.2
2023-06-10T04:05:55.511Z,17.3
2023-06-10T04:06:56.504Z,17.3
2023-06-10T04:07:57.482Z,17.4
2023-06-10T04:08:58.517Z,17.4
2023-06-10T04:09:59.509Z,17.4
2023-06-10T04:11:00.510Z,17.5
2023-06-10T04:12:01.520Z,17.5
2023-06-10T04:13:02.481Z,17.5
2023-06-10T04:14:03.509Z,17.5
2023-06-10T04:15:04.524Z,17.5
2023-06-10T04:16:05.489Z,17.5
2023-06-10T04:17:06.514Z,17.5
2023-06-10T04:18:07.586Z,17.6
2023-06-10T04:19:08.482Z,17.6
2023-06-10T04:20:09.514Z,17.6
2023-06-10T04:21:10.481Z,17.6
2023-06-10T04:22:11.522Z,17.7
2023-06-10T04:23:12.497Z,17.7
2023-06-10T04:24:13.512Z,17.7
2023-06-10T04:25:14.523Z,17.7
2023-06-10T04:26:15.482Z,17.8
2023-06-10T04:27:16.487Z,17.8
2023-06-10T04:28:17.503Z,17.8
2023-06-10T04:29:18.500Z,17.8
2023-06-10T04:30:19.491Z,17.8
2023-06-10T04:31:20.642Z,17.8
2023-06-10T04:32:21.518Z,17.8
2023-06-10T04:33:22.484Z,17.8
2023-06-10T04:34:23.586Z,17.9
2023-06-10T04:35:24.489Z,17.9
2023-06-10T04:36:25.512Z,18
2023-06-10T04:37:26.516Z,18
2023-06-10T04:38:27.498Z,18
2023-06-10T04:39:28.509Z,18
2023-06-10T04:40:29.531Z,18
2023-06-10T04:41:30.520Z,18
2023-06-10T04:42:31.514Z,18
2023-06-10T04:43:32.502Z,18
2023-06-10T04:44:33.497Z,18.1
2023-06-10T04:45:34.512Z,18.1
2023-06-10T04:46:35.533Z,18.1
2023-06-10T04:47:36.521Z,18.1
2023-06-10T04:48:37.497Z,18
2023-06-10T04:49:38.493Z,18.1
2023-06-10T04:50:39.505Z,18.1
2023-06-10T04:51:40.540Z,18.2
2023-06-10T04:52:41.564Z,18.2
2023-06-10T04:53:42.504Z,18.3
2023-06-10T04:54:43.559Z,18.3
2023-06-10T04:55:44.504Z,18.3
2023-06-10T04:56:45.562Z,18.3
2023-06-10T04:57:46.521Z,18.3
2023-06-10T04:58:47.549Z,18.3
2023-06-10T04:59:48.544Z,18.3
2023-06-10T05:00:49.526Z,18.3
2023-06-10T05:01:50.524Z,18.3
2023-06-10T05:02:51.554Z,18.3
2023-06-10T05:03:52.528Z,18.3
2023-06-10T05:04:53.506Z,18.3
2023-06-10T05:05:54.508Z,18.2
2023-06-10T05:06:55.501Z,18.2
2023-06-10T05:07:56.532Z,18.2
2023-06-10T05:08:57.529Z,18.3
2023-06-10T05:09:58.515Z,18.3
2023-06-10T05:10:59.535Z,18.3
2023-06-10T05:12:00.513Z,18.4
2023-06-10T05:13:01.526Z,18.4
2023-06-10T05:14:02.514Z,18.4
2023-06-10T05:15:03.585Z,18.4
2023-06-10T05:16:04.530Z,18.5
2023-06-10T05:17:05.522Z,18.5
2023-06-10T05:18:06.564Z,18.5
2023-06-10T05:19:08.656Z,18.6
2023-06-10T05:20:08.552Z,18.6
2023-06-10T05:21:09.558Z,18.6
2023-06-10T05:22:10.521Z,18.6
2023-06-10T05:23:11.552Z,18.6
2023-06-10T05:24:12.662Z,18.6
2023-06-10T05:25:13.551Z,18.6
2023-06-10T05:26:14.516Z,18.7
2023-06-10T05:27:15.523Z,18.7
2023-06-10T05:28:16.523Z,18.7
2023-06-10T05:29:17.565Z,18.7
2023-06-10T05:30:18.560Z,18.7
2023-06-10T05:31:19.578Z,18.7
2023-06-10T05:32:20.566Z,18.7
2023-06-10T05:33:21.524Z,18.7
2023-06-10T05:34:22.525Z,18.8
2023-06-10T05:35:23.558Z,18.8
2023-06-10T05:36:24.534Z,18.8
2023-06-10T05:37:25.529Z,18.9
2023-06-10T05:38:26.545Z,18.9
2023-06-10T05:39:27.542Z,18.9
2023-06-10T05:40:28.686Z,19
2023-06-10T05:41:29.554Z,19
2023-06-10T05:42:30.540Z,19
2023-06-10T05:43:31.533Z,19
2023-06-10T05:44:32.531Z,19
2023-06-10T05:45:33.541Z,19.1
2023-06-10T05:46:34.635Z,19.2
2023-06-10T05:47:35.613Z,19.3
2023-06-10T05:48:36.551Z,19.3
2023-06-10T05:49:37.540Z,19.4
2023-06-10T05:50:38.590Z,19.4
2023-06-10T05:51:39.588Z,19.5
2023-06-10T05:52:40.538Z,19.6
2023-06-10T05:53:41.648Z,19.7
2023-06-10T05:54:42.543Z,19.8
2023-06-10T05:55:43.564Z,19.8
2023-06-10T05:56:44.541Z,19.8
2023-06-10T05:57:45.613Z,19.9
2023-06-10T05:58:46.589Z,19.9
2023-06-10T05:59:47.551Z,20
2023-06-10T06:00:48.580Z,20.1
2023-06-10T06:01:49.545Z,20.2
2023-06-10T06:02:50.660Z,20.2
2023-06-10T06:03:51.599Z,20.3
2023-06-10T06:04:52.614Z,20.3
2023-06-10T06:05:53.557Z,20.4
2023-06-10T06:06:54.547Z,20.4
2023-06-10T06:07:55.545Z,20.5
2023-06-10T06:08:56.561Z,20.6
2023-06-10T06:09:57.542Z,20.6
2023-06-10T06:10:58.562Z,20.7
2023-06-10T06:11:59.552Z,20.8
2023-06-10T06:13:00.544Z,20.8
2023-06-10T06:14:01.598Z,20.8
2023-06-10T06:15:02.578Z,20.8
2023-06-10T06:16:03.659Z,20.8
2023-06-10T06:17:04.555Z,20.9
2023-06-10T06:18:05.656Z,20.8
2023-06-10T06:19:06.551Z,20.8
2023-06-10T06:20:07.740Z,20.8
2023-06-10T06:21:08.574Z,20.9
2023-06-10T06:22:09.551Z,20.9
2023-06-10T06:23:10.567Z,21
2023-06-10T06:24:11.628Z,21
2023-06-10T06:25:12.813Z,21.1
2023-06-10T06:26:13.566Z,21.2
2023-06-10T06:27:14.555Z,21.3
2023-06-10T06:28:15.564Z,21.3
2023-06-10T06:29:16.548Z,21.3
2023-06-10T06:30:17.555Z,21.4
2023-06-10T06:31:18.588Z,21.5
2023-06-10T06:32:19.563Z,21.5
2023-06-10T06:33:20.595Z,21.5
2023-06-10T06:34:21.574Z,21.5
2023-06-10T06:35:22.554Z,21.5
2023-06-10T06:36:23.595Z,21.6
2023-06-10T06:37:24.568Z,21.6
2023-06-10T06:38:25.613Z,21.7
2023-06-10T06:39:26.596Z,21.7
2023-06-10T06:40:27.572Z,21.7
2023-06-10T06:41:28.556Z,21.8
2023-06-10T06:42:29.570Z,21.8
2023-06-10T06:43:30.608Z,21.8
2023-06-10T06:44:31.574Z,21.9
2023-06-10T06:45:32.584Z,21.9
2023-06-10T06:46:33.569Z,21.9
2023-06-10T06:47:34.577Z,22
2023-06-10T06:48:35.663Z,22
2023-06-10T06:49:36.585Z,22.1
2023-06-10T06:50:37.594Z,22.1
2023-06-10T06:51:38.566Z,22.1
2023-06-10T06:52:39.572Z,22.1
2023-06-10T06:53:40.592Z,22.2
2023-06-10T06:54:41.629Z,22.2
2023-06-10T06:55:42.583Z,22.2
2023-06-10T06:56:43.724Z,22.2
2023-06-10T06:57:44.575Z,22.3
2023-06-10T06:58:45.703Z,22.1
2023-06-10T06:59:46.589Z,22.1
2023-06-10T07:00:47.638Z,22.1
2023-06-10T07:01:48.588Z,22
2023-06-10T07:02:49.588Z,22
2023-06-10T07:03:50.595Z,22
2023-06-10T07:04:51.622Z,22
2023-06-10T07:05:52.578Z,22
2023-06-10T07:06:53.598Z,22
2023-06-10T07:07:54.586Z,22
2023-06-10T07:08:55.584Z,22.1
2023-06-10T07:09:56.645Z,22.1
2023-06-10T07:10:57.586Z,22.2
2023-06-10T07:11:58.581Z,22.3
2023-06-10T07:12:59.611Z,22.3
2023-06-10T07:14:00.592Z,22.4
2023-06-10T07:15:01.647Z,22.4
2023-06-10T07:16:02.604Z,22.4
2023-06-10T07:17:03.854Z,22.4
2023-06-10T07:18:05.662Z,22.4
2023-06-10T07:19:06.653Z,22.4
2023-06-10T07:20:07.625Z,22.5
2023-06-10T07:21:08.712Z,22.5
2023-06-10T07:22:09.602Z,22.5
2023-06-10T07:23:10.590Z,22.5
2023-06-10T07:24:11.653Z,22.5
2023-06-10T07:25:12.806Z,22.5
2023-06-10T07:26:13.594Z,22.5
2023-06-10T07:27:14.618Z,22.5
2023-06-10T07:28:15.607Z,22.5
2023-06-10T07:29:16.595Z,22.5
2023-06-10T07:30:17.601Z,22.5
2023-06-10T07:31:18.646Z,22.5
2023-06-10T07:32:19.713Z,22.5
2023-06-10T07:33:20.650Z,22.5
2023-06-10T07:34:21.596Z,22.5
2023-06-10T07:35:22.598Z,22.6
2023-06-10T07:36:23.651Z,22.6
2023-06-10T07:37:24.611Z,22.6
2023-06-10T07:38:25.607Z,22.6
2023-06-10T07:39:26.628Z,22.6
2023-06-10T07:40:27.637Z,22.7
2023-06-10T07:41:28.629Z,22.8
2023-06-10T07:42:29.612Z,22.8
2023-06-10T07:43:30.614Z,22.8
2023-06-10T07:44:31.645Z,22.8
2023-06-10T07:45:32.610Z,22.8
2023-06-10T07:46:33.634Z,22.8
2023-06-10T07:47:34.655Z,22.8
2023-06-10T07:48:35.627Z,22.9
2023-06-10T07:49:36.692Z,22.9
2023-06-10T07:50:37.613Z,23
2023-06-10T07:51:38.606Z,23
2023-06-10T07:52:39.614Z,23
2023-06-10T07:53:40.615Z,23.1
2023-06-10T07:54:41.626Z,23.1
2023-06-10T07:55:42.641Z,23.1
2023-06-10T07:56:43.679Z,23.1
2023-06-10T07:57:44.647Z,23.1
2023-06-10T07:58:45.745Z,23
2023-06-10T07:59:46.628Z,23
2023-06-10T08:00:47.620Z,23.1
2023-06-10T08:01:48.628Z,23.2
2023-06-10T08:02:49.692Z,23.3
2023-06-10T08:03:50.918Z,23.4
2023-06-10T08:04:51.660Z,23.4
2023-06-10T08:05:52.614Z,23.5
2023-06-10T08:06:53.613Z,23.5
2023-06-10T08:07:54.647Z,23.5
2023-06-10T08:08:55.673Z,23.5
2023-06-10T08:09:56.629Z,23.6
2023-06-10T08:10:57.650Z,23.7
2023-06-10T08:11:58.771Z,23.7
2023-06-10T08:12:59.615Z,23.8
2023-06-10T08:14:00.639Z,23.8
2023-06-10T08:15:01.692Z,23.8
2023-06-10T08:16:02.729Z,23.8
2023-06-10T08:17:03.681Z,23.8
2023-06-10T08:18:04.697Z,23.8
2023-06-10T08:19:05.645Z,23.8
2023-06-10T08:20:06.668Z,23.8
2023-06-10T08:21:07.631Z,23.7
2023-06-10T08:22:08.647Z,23.7
2023-06-10T08:23:09.629Z,23.8
2023-06-10T08:24:10.647Z,23.8
2023-06-10T08:25:11.886Z,23.8
2023-06-10T08:26:12.656Z,23.8
2023-06-10T08:27:13.629Z,23.8
2023-06-10T08:28:14.625Z,23.7
2023-06-10T08:29:15.640Z,23.6
2023-06-10T08:30:16.651Z,23.6
2023-06-10T08:31:17.660Z,23.5
2023-06-10T08:32:18.672Z,23.6
2023-06-10T08:33:19.635Z,23.7
2023-06-10T08:34:20.644Z,23.7
2023-06-10T08:35:21.699Z,23.7
2023-06-10T08:36:22.711Z,23.7
2023-06-10T08:37:23.712Z,23.6
2023-06-10T08:38:24.638Z,23.5
2023-06-10T08:39:25.643Z,23.4
2023-06-10T08:40:26.694Z,23.4
2023-06-10T08:41:27.657Z,23.3
2023-06-10T08:42:28.655Z,23.4
2023-06-10T08:43:29.647Z,23.6
2023-06-10T08:44:30.658Z,23.8
2023-06-10T08:45:31.652Z,24
2023-06-10T08:46:32.649Z,24.1
2023-06-10T08:47:33.679Z,24.3
2023-06-10T08:48:34.665Z,24.5
2023-06-10T08:49:35.718Z,24.7
2023-06-10T08:50:36.641Z,24.8
2023-06-10T08:51:37.655Z,25
2023-06-10T08:52:38.654Z,25.1
2023-06-10T08:53:39.651Z,25.2
2023-06-10T08:54:40.672Z,25.3
2023-06-10T08:55:41.665Z,25.5
2023-06-10T08:56:42.686Z,25.7
2023-06-10T08:57:43.697Z,25.8
2023-06-10T08:58:44.686Z,25.9
2023-06-10T08:59:45.805Z,25.9
2023-06-10T09:00:46.671Z,26
2023-06-10T09:01:47.711Z,25.8
2023-06-10T09:02:48.705Z,25.7
2023-06-10T09:03:49.674Z,25.7
2023-06-10T09:04:50.657Z,25.8
2023-06-10T09:05:51.684Z,25.7
2023-06-10T09:06:52.655Z,25.8
2023-06-10T09:07:53.656Z,25.6
2023-06-10T09:08:54.739Z,25.5
2023-06-10T09:09:55.673Z,25.5
2023-06-10T09:10:56.661Z,25.4
2023-06-10T09:11:57.693Z,25.3
2023-06-10T09:12:58.670Z,25.2
2023-06-10T09:13:59.659Z,25.1
2023-06-10T09:15:03.137Z,25
2023-06-10T09:16:01.849Z,24.9
2023-06-10T09:17:02.672Z,25
2023-06-10T09:18:03.753Z,25
2023-06-10T09:19:04.699Z,24.9
2023-06-10T09:20:07.492Z,24.8
2023-06-10T09:21:06.656Z,24.7
2023-06-10T09:22:07.715Z,24.6
2023-06-10T09:23:08.701Z,24.7
2023-06-10T09:24:09.679Z,24.9
2023-06-10T09:25:10.672Z,24.8
2023-06-10T09:26:11.712Z,24.7
2023-06-10T09:27:12.828Z,24.5
2023-06-10T09:28:13.674Z,24.4
2023-06-10T09:29:14.666Z,24.5
2023-06-10T09:30:15.759Z,24.6
2023-06-10T09:31:16.704Z,24.6
2023-06-10T09:32:17.726Z,24.8
2023-06-10T09:33:18.693Z,24.9
2023-06-10T09:34:19.682Z,24.9
2023-06-10T09:35:20.727Z,24.9
2023-06-10T09:36:21.830Z,24.9
2023-06-10T09:37:22.716Z,25
2023-06-10T09:38:23.736Z,25.2
2023-06-10T09:39:24.681Z,25.3
2023-06-10T09:40:25.693Z,25.5
2023-06-10T09:41:26.701Z,25.6
2023-06-10T09:42:27.826Z,25.7
2023-06-10T09:43:28.694Z,25.9
2023-06-10T09:44:29.697Z,26.1
2023-06-10T09:45:30.701Z,26
2023-06-10T09:46:31.759Z,26.1
2023-06-10T09:47:32.713Z,26.2
2023-06-10T09:48:33.698Z,26.3
2023-06-10T09:49:34.693Z,26.3
2023-06-10T09:50:35.902Z,26.2
2023-06-10T09:51:36.793Z,26.2
2023-06-10T09:52:37.707Z,26.2
2023-06-10T09:53:38.681Z,26.2
2023-06-10T09:54:39.692Z,26.3
2023-06-10T09:55:40.687Z,26.4
2023-06-10T09:56:41.728Z,26.6
2023-06-10T09:57:42.747Z,26.8
2023-06-10T09:58:43.738Z,27
2023-06-10T09:59:44.699Z,27
2023-06-10T10:00:45.966Z,26.6
2023-06-10T10:01:46.808Z,26.5
2023-06-10T10:02:47.910Z,26.6
2023-06-10T10:03:48.688Z,26.6
2023-06-10T10:04:49.875Z,26.6
2023-06-10T10:05:50.825Z,26.7
2023-06-10T10:06:51.742Z,26.9
2023-06-10T10:07:52.744Z,27
2023-06-10T10:08:53.709Z,26.9
2023-06-10T10:09:54.714Z,27
2023-06-10T10:10:55.702Z,27.2
2023-06-10T10:11:56.761Z,27.2
2023-06-10T10:12:57.796Z,27.1
2023-06-10T10:13:58.699Z,27.2
2023-06-10T10:14:59.728Z,27.3
2023-06-10T10:16:00.704Z,27.4
2023-06-10T10:17:01.759Z,27.6
2023-06-10T10:18:02.909Z,27.8
2023-06-10T10:19:03.759Z,28
2023-06-10T10:20:04.743Z,28.2
2023-06-10T10:21:05.745Z,28.3
2023-06-10T10:22:06.778Z,28.2
2023-06-10T10:23:07.716Z,28.2
2023-06-10T10:24:08.825Z,28.1
2023-06-10T10:25:10.081Z,27.9
2023-06-10T10:26:10.999Z,27.9
2023-06-10T10:27:11.750Z,27.9
2023-06-10T10:28:12.764Z,27.9
2023-06-10T10:29:13.740Z,28
2023-06-10T10:30:14.759Z,27.9
2023-06-10T10:31:15.746Z,27.7
2023-06-10T10:32:16.841Z,27.8
2023-06-10T10:33:17.801Z,27.9
2023-06-10T10:34:18.745Z,28
2023-06-10T10:35:19.726Z,27.8
2023-06-10T10:36:20.750Z,27.9
2023-06-10T10:37:21.799Z,28
2023-06-10T10:38:22.723Z,28
2023-06-10T10:39:23.710Z,28.2
2023-06-10T10:40:24.711Z,28.2
2023-06-10T10:41:25.722Z,28.3
2023-06-10T10:42:26.780Z,28.4
2023-06-10T10:43:27.766Z,28.6
2023-06-10T10:44:28.797Z,28.7
2023-06-10T10:45:29.786Z,28.8
2023-06-10T10:46:30.726Z,28.9
2023-06-10T10:47:31.888Z,29.1
2023-06-10T10:48:32.726Z,29
2023-06-10T10:49:33.781Z,29
2023-06-10T10:50:34.731Z,29.1
2023-06-10T10:51:35.749Z,29.1
2023-06-10T10:52:36.735Z,29
2023-06-10T10:53:37.766Z,28.9
2023-06-10T10:54:38.717Z,29
2023-06-10T10:55:39.748Z,28.8
2023-06-10T10:56:40.743Z,28.7
2023-06-10T10:57:41.778Z,28.6
2023-06-10T10:58:42.793Z,28.7
2023-06-10T10:59:43.745Z,28.5
2023-06-10T11:00:44.781Z,28.6
2023-06-10T11:01:46.016Z,28.7
2023-06-10T11:02:47.494Z,28.7
2023-06-10T11:03:47.819Z,28.7
2023-06-10T11:04:48.887Z,28.7
2023-06-10T11:05:49.762Z,28.9
2023-06-10T11:06:50.768Z,29
2023-06-10T11:07:51.758Z,29.1
2023-06-10T11:08:52.783Z,29.1
2023-06-10T11:09:53.745Z,29.2
2023-06-10T11:10:54.760Z,29.2
2023-06-10T11:11:55.734Z,29.2
2023-06-10T11:12:56.758Z,29.3
2023-06-10T11:13:57.780Z,29.2
2023-06-10T11:14:58.768Z,29.1
2023-06-10T11:15:59.793Z,29.2
2023-06-10T11:17:00.831Z,29.1
2023-06-10T11:18:01.886Z,29.1
2023-06-10T11:19:02.773Z,29
2023-06-10T11:20:03.806Z,28.7
2023-06-10T11:21:05.019Z,28.5
2023-06-10T11:22:05.755Z,28.3
2023-06-10T11:23:06.768Z,28.2
2023-06-10T11:24:07.904Z,28.2
2023-06-10T11:25:08.871Z,28.2
2023-06-10T11:26:09.831Z,28.1
2023-06-10T11:27:10.768Z,28
2023-06-10T11:28:11.810Z,27.9
2023-06-10T11:29:12.831Z,27.9
2023-06-10T11:30:13.846Z,28
2023-06-10T11:31:14.797Z,28.1
2023-06-10T11:32:15.851Z,28.2
2023-06-10T11:33:16.946Z,28.3
2023-06-10T11:34:17.804Z,28.4
2023-06-10T11:35:18.842Z,28.6
2023-06-10T11:36:19.766Z,28.7
2023-06-10T11:37:20.776Z,28.7
2023-06-10T11:38:21.776Z,28.8
2023-06-10T11:39:22.756Z,28.9
2023-06-10T11:40:23.762Z,28.8
2023-06-10T11:41:24.749Z,28.8
2023-06-10T11:42:25.763Z,28.7
2023-06-10T11:43:26.806Z,28.9
2023-06-10T11:44:27.802Z,29
2023-06-10T11:45:28.769Z,29.1
2023-06-10T11:46:29.812Z,29.2
2023-06-10T11:47:30.811Z,29.3
2023-06-10T11:48:31.768Z,29.5
2023-06-10T11:49:32.771Z,29.6
2023-06-10T11:50:33.770Z,29.7
2023-06-10T11:51:34.828Z,29.5
2023-06-10T11:52:35.786Z,29.2
2023-06-10T11:53:36.793Z,29.1
2023-06-10T11:54:37.768Z,29.1
2023-06-10T11:55:38.764Z,29.2
2023-06-10T11:56:39.885Z,29.2
2023-06-10T11:57:40.767Z,29.1
2023-06-10T11:58:41.785Z,28.8
2023-06-10T11:59:42.813Z,28.7
2023-06-10T12:00:43.802Z,28.5
2023-06-10T12:01:44.987Z,28.5
2023-06-10T12:02:46.132Z,28.3
2023-06-10T12:03:46.857Z,28.3
2023-06-10T12:04:47.793Z,28.3
2023-06-10T12:05:48.851Z,28.3
2023-06-10T12:06:49.820Z,28.2
2023-06-10T12:07:50.779Z,28
2023-06-10T12:08:51.828Z,27.9
2023-06-10T12:09:52.807Z,28
2023-06-10T12:10:53.791Z,28.1
2023-06-10T12:11:54.830Z,28.2
2023-06-10T12:12:55.781Z,28.3
2023-06-10T12:13:56.809Z,28.4
2023-06-10T12:14:58.034Z,28.4
2023-06-10T12:15:58.843Z,28.5
2023-06-10T12:16:59.808Z,28.6
2023-06-10T12:18:00.856Z,28.7
2023-06-10T12:19:01.804Z,28.9
2023-06-10T12:20:02.878Z,29.1
2023-06-10T12:21:03.805Z,29.4
2023-06-10T12:22:04.811Z,29.5
2023-06-10T12:23:05.777Z,29.7
2023-06-10T12:24:06.877Z,29.8
2023-06-10T12:25:08.157Z,29.7
2023-06-10T12:26:08.870Z,29.7
2023-06-10T12:27:09.808Z,29.7
2023-06-10T12:28:10.799Z,29.6
2023-06-10T12:29:11.800Z,29.4
2023-06-10T12:30:12.825Z,29.2
2023-06-10T12:31:13.815Z,29.1
2023-06-10T12:32:14.844Z,29.1
2023-06-10T12:33:15.807Z,29.2
2023-06-10T12:34:16.792Z,29.3
2023-06-10T12:35:17.877Z,29.3
2023-06-10T12:36:18.876Z,29.3
2023-06-10T12:37:19.791Z,29.3
2023-06-10T12:38:20.827Z,29.4
2023-06-10T12:39:21.806Z,29.6
2023-06-10T12:40:22.810Z,29.8
2023-06-10T12:41:23.876Z,29.9
2023-06-10T12:42:24.797Z,30
2023-06-10T12:43:25.800Z,30
2023-06-10T12:44:26.799Z,29.9
2023-06-10T12:45:27.828Z,29.5
2023-06-10T12:46:28.854Z,29.4
2023-06-10T12:47:29.885Z,29.3
2023-06-10T12:48:31.238Z,29.4
2023-06-10T12:49:31.796Z,29.3
2023-06-10T12:50:32.811Z,29.2
2023-06-10T12:51:33.844Z,29.2
2023-06-10T12:52:34.938Z,29.3
2023-06-10T12:53:36.298Z,29.3
2023-06-10T12:54:36.828Z,29.2
2023-06-10T12:55:37.827Z,29.3
2023-06-10T12:56:38.817Z,29.2
2023-06-10T12:57:39.832Z,29.3
2023-06-10T12:58:40.817Z,29.3
2023-06-10T12:59:41.832Z,29.2
2023-06-10T13:00:42.840Z,29.2
2023-06-10T13:01:43.863Z,29.1
2023-06-10T13:02:44.933Z,29.1
2023-06-10T13:03:46.127Z,29
2023-06-10T13:04:46.907Z,28.6
2023-06-10T13:05:47.818Z,28.4
2023-06-10T13:06:48.830Z,28.4
2023-06-10T13:07:49.823Z,28.2
2023-06-10T13:08:50.814Z,28
2023-06-10T13:09:51.831Z,28.1
2023-06-10T13:10:52.839Z,28.2
2023-06-10T13:11:53.905Z,28.4
2023-06-10T13:12:54.849Z,28.7
2023-06-10T13:13:55.851Z,28.9
2023-06-10T13:14:56.845Z,29.2
2023-06-10T13:15:57.872Z,29.3
2023-06-10T13:16:58.902Z,29.4
2023-06-10T13:17:59.945Z,29.5
2023-06-10T13:19:00.837Z,29.7
2023-06-10T13:20:01.882Z,29.8
2023-06-10T13:21:02.822Z,29.8
2023-06-10T13:22:03.844Z,29.8
2023-06-10T13:23:04.867Z,29.8
2023-06-10T13:24:05.889Z,30
2023-06-10T13:25:06.852Z,30
2023-06-10T13:26:07.834Z,29.9
2023-06-10T13:27:08.868Z,29.9
2023-06-10T13:28:09.841Z,29.8
2023-06-10T13:29:10.846Z,29.9
2023-06-10T13:30:11.914Z,29.9
2023-06-10T13:31:12.877Z,30
2023-06-10T13:32:13.838Z,30.1
2023-06-10T13:33:14.893Z,30.1
2023-06-10T13:34:15.849Z,30.2
2023-06-10T13:35:16.836Z,30.2
2023-06-10T13:36:17.852Z,30.3
2023-06-10T13:37:18.850Z,30.2
2023-06-10T13:38:19.842Z,30.3
2023-06-10T13:39:20.860Z,30.3
2023-06-10T13:40:21.872Z,30.3
2023-06-10T13:41:22.847Z,30.3